Time;durP1;ratioP1;P1;durP2;ratioP2;P2;SDS_P1;SDS_P2;PMS_P1;PMS_P2;Temp;Humidity;BMP_temperature;BMP_pressure;BME280_temperature;BME280_humidity;BME280_pressure;Samples;Min_cycle;Max_cycle;Signal;HPM_P1;HPM_P2
2023/12/27 00:02:14;;;;;;;33.80;14.50;;;;;;;2.70;100.00;97281.46;110334;1241;69890;-67
2023/12/27 00:04:44;;;;;;;17.40;12.60;;;;;;;2.68;100.00;97282.42;110314;1240;59701;-68
2023/12/27 00:07:14;;;;;;;21.10;15.00;;;;;;;2.69;100.00;97290.14;110316;1241;59621;-68
2023/12/27 00:09:44;;;;;;;28.10;17.00;;;;;;;2.64;100.00;97291.39;110306;1240;71469;-68
2023/12/27 00:12:14;;;;;;;18.80;13.30;;;;;;;2.56;100.00;97292.05;110297;1241;69249;-67
2023/12/27 00:14:43;;;;;;;21.10;13.20;;;;;;;2.52;100.00;97295.15;110306;1240;69903;-67
2023/12/27 00:17:14;;;;;;;18.60;13.90;;;;;;;2.49;100.00;97303.54;110316;1241;59827;-67
2023/12/27 00:19:45;;;;;;;17.20;13.00;;;;;;;2.47;100.00;97304.15;110332;1241;59737;-67
2023/12/27 00:22:16;;;;;;;17.10;13.00;;;;;;;2.46;100.00;97307.80;110335;1241;71617;-67
2023/12/27 00:24:45;;;;;;;27.80;18.50;;;;;;;2.48;100.00;97307.70;110360;1241;69166;-67
2023/12/27 00:27:15;;;;;;;26.10;15.60;;;;;;;2.46;100.00;97309.52;110351;1242;68371;-67
2023/12/27 00:29:45;;;;;;;17.30;12.40;;;;;;;2.46;100.00;97321.23;110342;1240;59712;-67
2023/12/27 00:32:15;;;;;;;16.40;11.80;;;;;;;2.48;100.00;97330.58;110354;1241;59690;-68
2023/12/27 00:34:48;;;;;;;15.40;11.60;;;;;;;2.46;100.00;97337.19;110390;1241;70976;-67
2023/12/27 00:37:20;;;;;;;16.50;11.00;;;;;;;2.44;100.00;97342.80;110384;1241;69571;-67
2023/12/27 00:39:50;;;;;;;15.60;11.80;;;;;;;2.45;100.00;97343.96;110373;1241;69269;-66
2023/12/27 00:42:21;;;;;;;15.90;11.40;;;;;;;2.55;100.00;97345.80;110341;1242;59721;-67
2023/12/27 00:44:52;;;;;;;18.50;11.10;;;;;;;2.64;100.00;97358.48;110265;1242;59669;-66
2023/12/27 00:47:24;;;;;;;15.20;11.30;;;;;;;2.70;100.00;97367.88;110246;1241;71409;-68
2023/12/27 00:49:53;;;;;;;17.50;13.00;;;;;;;2.72;100.00;97369.14;110279;1241;69670;-67
2023/12/27 00:52:24;;;;;;;18.20;12.70;;;;;;;2.77;100.00;97374.63;110315;1241;69118;-68
2023/12/27 00:54:53;;;;;;;16.50;12.80;;;;;;;2.81;100.00;97379.79;110278;1242;59723;-68
2023/12/27 00:57:24;;;;;;;21.60;11.80;;;;;;;2.87;100.00;97391.42;110266;1242;59707;-67
2023/12/27 00:59:57;;;;;;;15.70;10.80;;;;;;;2.92;100.00;97394.50;110342;1241;71383;-68
2023/12/27 01:02:27;;;;;;;13.30;10.60;;;;;;;2.96;100.00;97398.27;110310;1241;68402;-68
2023/12/27 01:04:57;;;;;;;15.60;11.50;;;;;;;3.01;100.00;97392.53;110329;1240;68525;-67
2023/12/27 01:07:27;;;;;;;16.30;11.60;;;;;;;3.04;100.00;97387.24;110313;1241;59753;-67
2023/12/27 01:09:59;;;;;;;27.10;20.20;;;;;;;3.03;100.00;97389.88;110356;1241;59679;-67
2023/12/27 01:12:30;;;;;;;23.90;16.50;;;;;;;2.92;100.00;97392.09;110348;1241;71481;-66
2023/12/27 01:15:01;;;;;;;41.30;25.70;;;;;;;2.82;100.00;97414.52;110310;1241;68347;-68
2023/12/27 01:17:33;;;;;;;30.60;22.10;;;;;;;2.75;100.00;97405.33;110214;1242;69275;-67
2023/12/27 01:20:04;;;;;;;28.50;20.70;;;;;;;2.79;100.00;97416.17;110317;1241;59790;-67
2023/12/27 01:22:34;;;;;;;28.40;21.30;;;;;;;2.94;100.00;97429.86;110267;1242;60073;-67
2023/12/27 01:25:06;;;;;;;28.50;19.70;;;;;;;3.11;100.00;97433.61;110339;1241;71228;-68
2023/12/27 01:27:36;;;;;;;32.30;22.80;;;;;;;3.25;100.00;97434.02;110381;1241;69830;-68
2023/12/27 01:30:08;;;;;;;47.60;31.30;;;;;;;3.32;100.00;97430.46;110288;1240;69267;-67
2023/12/27 01:32:39;;;;;;;45.60;33.00;;;;;;;3.39;100.00;97437.23;110290;1241;59731;-67
2023/12/27 01:35:11;;;;;;;42.00;32.00;;;;;;;3.38;100.00;97430.56;110354;1241;59660;-67
2023/12/27 01:37:44;;;;;;;48.30;34.60;;;;;;;3.37;100.00;97426.46;110408;1240;71407;-67
2023/12/27 01:40:16;;;;;;;45.50;33.40;;;;;;;3.38;100.00;97426.98;110264;1242;69248;-67
2023/12/27 01:42:48;;;;;;;38.10;29.00;;;;;;;3.37;100.00;97429.23;110453;1240;69875;-68
2023/12/27 01:45:20;;;;;;;37.30;27.70;;;;;;;3.37;100.00;97434.40;110387;1242;59654;-67
2023/12/27 01:47:51;;;;;;;31.50;22.40;;;;;;;3.39;100.00;97435.33;110280;1245;59930;-67
2023/12/27 01:50:21;;;;;;;35.20;25.80;;;;;;;3.43;100.00;97436.22;110313;1241;71434;-67
2023/12/27 01:52:51;;;;;;;42.30;32.60;;;;;;;3.46;100.00;97442.96;110247;1242;69209;-68
2023/12/27 01:55:21;;;;;;;39.90;28.20;;;;;;;3.49;100.00;97444.88;110321;1241;68482;-67
2023/12/27 01:57:51;;;;;;;40.70;29.40;;;;;;;3.56;100.00;97442.84;110297;1241;59747;-67
2023/12/27 02:00:23;;;;;;;39.00;26.20;;;;;;;3.63;100.00;97442.73;110249;1240;59689;-67
2023/12/27 02:02:54;;;;;;;38.70;25.40;;;;;;;3.70;100.00;97446.73;110255;1240;71551;-67
2023/12/27 02:05:25;;;;;;;41.60;29.90;;;;;;;3.75;100.00;97445.10;110267;1242;68499;-67
2023/12/27 02:07:57;;;;;;;35.30;24.80;;;;;;;3.78;100.00;97447.05;110335;1241;69770;-67
2023/12/27 02:10:27;;;;;;;44.20;30.10;;;;;;;3.79;100.00;97447.16;110311;1241;59754;-67
2023/12/27 02:13:04;;;;;;;37.80;29.10;;;;;;;3.78;100.00;97452.39;110337;1240;59690;-67
2023/12/27 02:15:37;;;;;;;42.70;32.70;;;;;;;3.76;100.00;97450.05;110357;1241;70420;-67
2023/12/27 02:18:10;;;;;;;38.60;26.90;;;;;;;3.75;100.00;97444.27;110344;1242;69309;-68
2023/12/27 02:20:44;;;;;;;41.20;31.70;;;;;;;3.75;100.00;97442.89;110224;1241;69310;-67
2023/12/27 02:23:19;;;;;;;39.60;29.00;;;;;;;3.75;100.00;97436.30;110340;1241;59715;-68
2023/12/27 02:25:52;;;;;;;38.40;26.30;;;;;;;3.76;100.00;97438.34;110336;1241;59700;-68
2023/12/27 02:28:23;;;;;;;36.10;25.60;;;;;;;3.77;100.00;97438.27;110225;1241;71421;-69
2023/12/27 02:30:54;;;;;;;;;;;;;;;3.80;100.00;97442.82;110364;1241;68468;-68
2023/12/27 02:33:25;;;;;;;27.30;20.80;;;;;;;3.83;100.00;97443.21;110314;1241;68498;-68
2023/12/27 02:35:57;;;;;;;30.20;22.20;;;;;;;3.85;100.00;97447.06;110291;1240;59666;-68
2023/12/27 02:38:30;;;;;;;27.20;20.30;;;;;;;3.86;100.00;97444.14;110323;1241;59734;-69
2023/12/27 02:41:02;;;;;;;30.80;22.30;;;;;;;3.86;100.00;97442.52;110246;1242;71770;-68
2023/12/27 02:43:32;;;;;;;33.70;24.10;;;;;;;3.87;100.00;97442.19;110328;1241;69279;-67
2023/12/27 02:46:03;;;;;;;26.30;20.50;;;;;;;3.88;100.00;97442.79;110350;1241;69413;-69
2023/12/27 02:48:33;;;;;;;23.70;18.40;;;;;;;3.88;100.00;97443.14;110288;1242;59702;-68
2023/12/27 02:51:06;;;;;;;29.70;21.10;;;;;;;3.89;100.00;97443.80;110369;1241;59699;-68
2023/12/27 02:53:37;;;;;;;24.80;20.40;;;;;;;3.89;100.00;97444.13;110260;1240;70935;-68
2023/12/27 02:56:08;;;;;;;34.80;24.10;;;;;;;3.89;100.00;97444.83;110256;1241;67473;-68
2023/12/27 02:58:39;;;;;;;27.60;20.80;;;;;;;3.89;100.00;97448.30;110338;1240;69119;-68
2023/12/27 03:01:10;;;;;;;29.80;20.80;;;;;;;3.89;100.00;97453.12;110433;1242;59740;-68
2023/12/27 03:03:40;;;;;;;28.80;19.60;;;;;;;3.88;100.00;97462.80;110390;1240;59738;-68
2023/12/27 03:06:12;;;;;;;29.30;20.20;;;;;;;3.87;100.00;97467.48;110396;1241;71441;-68
2023/12/27 03:08:43;;;;;;;26.80;19.30;;;;;;;3.85;100.00;97468.65;110264;1242;69239;-68
2023/12/27 03:11:15;;;;;;;34.50;23.70;;;;;;;3.82;100.00;97469.27;110352;1241;68533;-67
2023/12/27 03:13:45;;;;;;;36.70;27.20;;;;;;;3.76;100.00;97478.17;110384;1246;59687;-67
2023/12/27 03:16:18;;;;;;;;;;;;;;;3.66;100.00;97483.64;110281;1242;59640;-67
2023/12/27 03:18:48;;;;;;;32.60;23.10;;;;;;;3.56;100.00;97485.05;110324;1241;69727;-67
2023/12/27 03:21:18;;;;;;;30.10;19.90;;;;;;;3.53;100.00;97487.98;110369;1241;69706;-67
2023/12/27 03:23:48;;;;;;;31.50;20.20;;;;;;;3.52;100.00;97486.98;110276;1241;69012;-66
2023/12/27 03:26:18;;;;;;;25.30;19.30;;;;;;;3.53;100.00;97486.94;110251;1242;59702;-67
2023/12/27 03:28:49;;;;;;;28.20;19.70;;;;;;;3.55;100.00;97491.64;110234;1242;59702;-67
2023/12/27 03:31:20;;;;;;;21.80;16.80;;;;;;;3.56;100.00;97495.08;110419;1241;71423;-67
2023/12/27 03:33:51;;;;;;;27.30;19.60;;;;;;;3.56;100.00;97495.59;110447;1242;67579;-67
2023/12/27 03:36:21;;;;;;;24.60;18.80;;;;;;;3.53;100.00;97498.98;110376;1242;69143;-67
2023/12/27 03:38:52;;;;;;;23.70;17.70;;;;;;;3.53;100.00;97496.04;110471;1241;59708;-67
2023/12/27 03:41:24;;;;;;;23.30;17.10;;;;;;;3.52;100.00;97495.23;110468;1242;59773;-66
2023/12/27 03:43:58;;;;;;;25.60;18.10;;;;;;;3.49;100.00;97500.21;110478;1240;71280;-69
2023/12/27 03:46:30;;;;;;;29.60;20.10;;;;;;;3.38;100.00;97505.16;110232;1240;68352;-66
2023/12/27 03:49:00;;;;;;;29.00;20.30;;;;;;;3.22;100.00;97515.66;110272;1241;68605;-67
2023/12/27 03:51:32;;;;;;;27.80;20.20;;;;;;;3.17;100.00;97523.25;110293;1245;59724;-67
2023/12/27 03:54:03;;;;;;;27.50;18.80;;;;;;;3.15;100.00;97532.13;110320;1241;59664;-68
2023/12/27 03:56:34;;;;;;;27.70;20.20;;;;;;;3.15;100.00;97529.70;110318;1242;69643;-67
2023/12/27 03:59:06;;;;;;;27.30;20.20;;;;;;;3.34;100.00;97534.63;110277;1241;69423;-68
2023/12/27 04:01:38;;;;;;;24.00;17.30;;;;;;;3.44;100.00;97533.85;110287;1241;69466;-67
2023/12/27 04:04:10;;;;;;;;;;;;;;;3.45;100.00;97535.84;110294;1242;59750;-67
2023/12/27 04:06:40;;;;;;;25.20;19.50;;;;;;;3.46;100.00;97542.36;110286;1241;59759;-67
2023/12/27 04:09:12;;;;;;;27.70;21.10;;;;;;;3.43;100.00;97547.66;110310;1241;70448;-67
2023/12/27 04:11:45;;;;;;;26.40;20.50;;;;;;;3.42;100.00;97546.52;110243;1242;68495;-67
2023/12/27 04:14:18;;;;;;;23.50;18.10;;;;;;;3.39;100.00;97548.69;110293;1241;68558;-67
2023/12/27 04:16:48;;;;;;;25.80;18.40;;;;;;;3.35;100.00;97551.65;110217;1239;59729;-67
2023/12/27 04:19:19;;;;;;;25.80;19.50;;;;;;;3.30;100.00;97549.92;110342;1241;59738;-68
2023/12/27 04:21:52;;;;;;;30.40;23.70;;;;;;;3.07;100.00;97559.31;110227;1243;70495;-67
2023/12/27 04:24:23;;;;;;;28.70;19.90;;;;;;;3.01;100.00;97561.27;110214;1240;69031;-67
2023/12/27 04:26:57;;;;;;;24.40;18.60;;;;;;;2.98;100.00;97559.30;110344;1241;69405;-67
2023/12/27 04:29:27;;;;;;;29.60;21.30;;;;;;;3.00;100.00;97560.13;110295;1241;59683;-67
2023/12/27 04:31:59;;;;;;;35.10;24.80;;;;;;;3.15;100.00;97558.33;110249;1242;59624;-67
2023/12/27 04:34:31;;;;;;;33.60;25.30;;;;;;;3.12;100.00;97562.91;110297;1240;70443;-67
2023/12/27 04:37:02;;;;;;;76.10;30.60;;;;;;;3.05;100.00;97569.40;110359;1240;69121;-67
2023/12/27 04:39:35;;;;;;;32.60;23.60;;;;;;;2.95;100.00;97569.44;110295;1241;69615;-67
2023/12/27 04:42:06;;;;;;;44.70;27.70;;;;;;;2.86;100.00;97574.43;110288;1241;59741;-67
2023/12/27 04:44:36;;;;;;;55.00;33.90;;;;;;;2.77;100.00;97571.85;110441;1239;59673;-66
2023/12/27 04:47:10;;;;;;;46.50;30.20;;;;;;;2.75;100.00;97574.88;110402;1241;70732;-68
2023/12/27 04:49:41;;;;;;;33.90;24.80;;;;;;;2.72;100.00;97577.36;110462;1242;69273;-67
2023/12/27 04:52:14;;;;;;;48.90;33.10;;;;;;;2.73;100.00;97575.98;110438;1242;69312;-67
2023/12/27 04:54:46;;;;;;;57.50;37.90;;;;;;;2.74;100.00;97574.91;110380;1241;59696;-67
2023/12/27 04:57:17;;;;;;;49.00;33.90;;;;;;;2.77;100.00;97580.29;110221;1242;59708;-67
2023/12/27 04:59:48;;;;;;;43.30;28.90;;;;;;;2.78;100.00;97576.48;110320;1239;71368;-68
2023/12/27 05:02:20;;;;;;;41.60;28.50;;;;;;;2.78;100.00;97577.16;110345;1241;69165;-67
2023/12/27 05:04:51;;;;;;;35.00;24.50;;;;;;;2.77;100.00;97577.20;110253;1242;69224;-66
2023/12/27 05:07:22;;;;;;;36.70;22.70;;;;;;;2.78;100.00;97575.96;110252;1243;59701;-66
2023/12/27 05:09:53;;;;;;;31.30;22.50;;;;;;;2.79;100.00;97579.86;110232;1242;59720;-67
2023/12/27 05:12:23;;;;;;;31.60;20.70;;;;;;;2.80;100.00;97584.98;110346;1241;72011;-66
2023/12/27 05:14:54;;;;;;;35.60;22.40;;;;;;;2.82;100.00;97586.13;110319;1241;69723;-66
2023/12/27 05:17:24;;;;;;;36.30;25.00;;;;;;;2.82;100.00;97588.73;110334;1242;69353;-66
2023/12/27 05:19:55;;;;;;;33.90;22.10;;;;;;;2.80;100.00;97590.33;110329;1241;59756;-66
2023/12/27 05:22:27;;;;;;;34.60;23.90;;;;;;;2.79;100.00;97606.55;110347;1241;59678;-66
2023/12/27 05:24:57;;;;;;;30.60;20.70;;;;;;;2.77;100.00;97613.86;110420;1241;71780;-66
2023/12/27 05:27:28;;;;;;;30.40;20.00;;;;;;;2.75;100.00;97620.33;110362;1241;68454;-66
2023/12/27 05:29:58;;;;;;;34.20;21.80;;;;;;;2.74;100.00;97619.31;110299;1241;68463;-66
2023/12/27 05:32:30;;;;;;;29.30;19.20;;;;;;;2.74;100.00;97621.38;110358;1241;60167;-66
2023/12/27 05:34:59;;;;;;;25.40;18.50;;;;;;;2.75;100.00;97625.98;110382;1241;59686;-66
2023/12/27 05:37:29;;;;;;;29.60;20.50;;;;;;;2.77;100.00;97631.77;110379;1241;71310;-66
2023/12/27 05:39:59;;;;;;;29.50;18.70;;;;;;;2.78;100.00;97638.63;110352;1241;69717;-67
2023/12/27 05:42:29;;;;;;;30.30;20.10;;;;;;;2.78;100.00;97643.42;110315;1240;68513;-66
2023/12/27 05:44:59;;;;;;;38.60;25.80;;;;;;;2.78;100.00;97636.71;110349;1241;59660;-66
2023/12/27 05:47:29;;;;;;;32.80;22.90;;;;;;;2.76;100.00;97637.29;110348;1242;59710;-66
2023/12/27 05:49:58;;;;;;;25.70;19.60;;;;;;;2.73;100.00;97643.81;110339;1242;72305;-67
2023/12/27 05:52:28;;;;;;;29.00;21.60;;;;;;;2.68;100.00;97645.89;110307;1241;69135;-66
2023/12/27 05:54:58;;;;;;;30.00;21.00;;;;;;;2.62;100.00;97647.14;110476;1241;69465;-66
2023/12/27 05:57:28;;;;;;;;;;;;;;;2.57;100.00;97647.98;110338;1240;59696;-67
2023/12/27 05:59:59;;;;;;;38.50;24.20;;;;;;;2.56;100.00;97648.55;110357;1240;59728;-66
2023/12/27 06:02:32;;;;;;;34.50;24.00;;;;;;;2.52;100.00;97653.86;110372;1241;70650;-66
2023/12/27 06:05:02;;;;;;;35.60;25.70;;;;;;;2.46;100.00;97652.19;110366;1242;69102;-66
2023/12/27 06:07:32;;;;;;;37.50;26.40;;;;;;;2.47;100.00;97656.95;110249;1244;69274;-66
2023/12/27 06:10:03;;;;;;;47.30;32.10;;;;;;;2.47;100.00;97659.53;110305;1241;59721;-66
2023/12/27 06:12:33;;;;;;;38.20;25.60;;;;;;;2.47;100.00;97662.11;110262;1242;59681;-66
2023/12/27 06:15:04;;;;;;;43.20;32.60;;;;;;;2.48;100.00;97668.29;110339;1241;70996;-66
2023/12/27 06:17:34;;;;;;;50.90;33.20;;;;;;;2.44;100.00;97671.34;110347;1241;69424;-66
2023/12/27 06:20:07;;;;;;;43.60;28.70;;;;;;;2.40;100.00;97675.61;110322;1241;69504;-67
2023/12/27 06:22:37;;;;;;;39.20;25.80;;;;;;;2.39;100.00;97676.85;110302;1241;59728;-67
2023/12/27 06:25:07;;;;;;;63.20;43.30;;;;;;;2.37;100.00;97684.85;110296;1240;59739;-67
2023/12/27 06:27:40;;;;;;;54.90;35.90;;;;;;;2.31;100.00;97690.21;110353;1240;71988;-67
2023/12/27 06:30:10;;;;;;;52.60;36.50;;;;;;;2.26;100.00;97688.65;110373;1242;69835;-67
2023/12/27 06:32:40;;;;;;;46.00;30.80;;;;;;;2.25;100.00;97687.83;110316;1240;68533;-68
2023/12/27 06:35:10;;;;;;;39.90;28.50;;;;;;;2.29;100.00;97696.30;110370;1242;59758;-68
2023/12/27 06:37:42;;;;;;;35.40;26.00;;;;;;;2.33;100.00;97699.98;110312;1241;59737;-68
2023/12/27 06:40:14;;;;;;;51.30;36.00;;;;;;;2.37;100.00;97709.45;110335;1239;70925;-69
2023/12/27 06:42:45;;;;;;;40.00;28.90;;;;;;;2.43;100.00;97710.45;110345;1241;69813;-69
2023/12/27 06:45:14;;;;;;;39.30;29.10;;;;;;;2.49;100.00;97720.88;110363;1242;69846;-70
2023/12/27 06:47:44;;;;;;;35.10;24.70;;;;;;;2.55;100.00;97721.70;110452;1243;59745;-71
2023/12/27 06:50:14;;;;;;;38.80;28.10;;;;;;;2.61;100.00;97716.16;110461;1242;59734;-70
2023/12/27 06:52:44;;;;;;;34.30;25.30;;;;;;;2.67;100.00;97723.50;110402;1242;71914;-69
2023/12/27 06:55:14;;;;;;;44.90;33.20;;;;;;;2.74;100.00;97731.17;110449;1242;69629;-69
2023/12/27 06:57:44;;;;;;;41.20;32.50;;;;;;;2.86;100.00;97742.12;110454;1241;69296;-68
2023/12/27 07:00:14;;;;;;;37.80;30.70;;;;;;;2.94;100.00;97744.56;110392;1243;59682;-69
2023/12/27 07:02:44;;;;;;;;;;;;;;;3.03;100.00;97752.13;110401;1241;59750;-68
2023/12/27 07:05:13;;;;;;;38.70;30.80;;;;;;;3.09;100.00;97750.55;110475;1240;71952;-69
2023/12/27 07:07:42;;;;;;;34.70;28.70;;;;;;;3.15;100.00;97759.29;110419;1241;69689;-69
2023/12/27 07:10:14;;;;;;;36.10;27.80;;;;;;;3.20;100.00;97762.20;110356;1241;69779;-69
2023/12/27 07:12:43;;;;;;;31.60;24.60;;;;;;;3.27;100.00;97768.66;110433;1241;59722;-70
2023/12/27 07:15:13;;;;;;;31.20;23.20;;;;;;;3.34;100.00;97774.59;110496;1240;59670;-70
2023/12/27 07:17:43;;;;;;;28.30;23.10;;;;;;;3.40;100.00;97777.79;110376;1241;71966;-71
2023/12/27 07:20:13;;;;;;;32.70;25.20;;;;;;;3.45;100.00;97777.44;110353;1241;68525;-69
2023/12/27 07:22:42;;;;;;;34.30;25.60;;;;;;;3.52;100.00;97782.50;110501;1240;68414;-72
2023/12/27 07:25:12;;;;;;;30.90;24.10;;;;;;;3.58;100.00;97782.10;110411;1240;59736;-73
2023/12/27 07:27:41;;;;;;;30.20;24.50;;;;;;;3.65;100.00;97782.71;110485;1241;59675;-72
2023/12/27 07:30:12;;;;;;;34.80;28.40;;;;;;;3.88;100.00;97781.79;110400;1241;70466;-72
2023/12/27 07:32:42;;;;;;;33.40;27.00;;;;;;;4.06;100.00;97784.84;110365;1241;70255;-72
2023/12/27 07:35:12;;;;;;;39.10;29.30;;;;;;;4.21;100.00;97788.57;110463;1241;68303;-72
2023/12/27 07:37:42;;;;;;;38.50;31.90;;;;;;;4.34;100.00;97787.33;110366;1242;59646;-73
2023/12/27 07:40:12;;;;;;;34.80;26.40;;;;;;;4.41;100.00;97786.54;110292;1239;59817;-73
2023/12/27 07:42:43;;;;;;;30.30;26.00;;;;;;;4.46;100.00;97792.01;110325;1241;71453;-72
2023/12/27 07:45:12;;;;;;;31.00;24.80;;;;;;;4.71;100.00;97798.03;110322;1242;69284;-74
2023/12/27 07:47:43;;;;;;;33.20;24.40;;;;;;;4.78;100.00;97802.56;110338;1239;69215;-73
2023/12/27 07:50:12;;;;;;;31.70;22.90;;;;;;;4.83;100.00;97807.48;110355;1241;59678;-72
2023/12/27 07:52:42;;;;;;;34.70;26.40;;;;;;;4.87;100.00;97810.09;110336;1242;59632;-72
2023/12/27 07:55:11;;;;;;;35.80;25.90;;;;;;;4.92;100.00;97820.77;110382;1242;72412;-71
2023/12/27 07:57:41;;;;;;;34.10;27.20;;;;;;;4.82;100.00;97827.06;110372;1239;69031;-70
2023/12/27 08:00:14;;;;;;;;;;;;;;;4.71;100.00;97832.71;110513;1243;69853;-70
2023/12/27 08:02:44;;;;;;;35.70;27.20;;;;;;;4.71;100.00;97830.29;110446;1239;59705;-71
2023/12/27 08:05:14;;;;;;;;;;;;;;;4.71;100.00;97840.85;110494;1242;59665;-71
2023/12/27 08:07:45;;;;;;;29.90;23.20;;;;;;;4.81;100.00;97841.80;110418;1241;70640;-71
2023/12/27 08:10:15;;;;;;;28.10;23.10;;;;;;;4.98;100.00;97846.25;110376;1241;69821;-71
2023/12/27 08:12:46;;;;;;;27.60;21.80;;;;;;;5.07;100.00;97852.21;110469;1242;69580;-70
2023/12/27 08:15:15;;;;;;;22.40;18.80;;;;;;;5.19;100.00;97856.18;110504;1240;60085;-70
2023/12/27 08:17:45;;;;;;;33.00;26.60;;;;;;;5.30;100.00;97864.50;110541;1242;59600;-70
2023/12/27 08:20:14;;;;;;;30.90;23.30;;;;;;;5.42;100.00;97866.94;110482;1241;71930;-70
2023/12/27 08:22:43;;;;;;;27.70;21.30;;;;;;;5.45;100.00;97872.48;110328;1241;69792;-70
2023/12/27 08:25:15;;;;;;;25.70;20.40;;;;;;;5.52;100.00;97878.24;110385;1241;68512;-70
2023/12/27 08:27:44;;;;;;;34.30;25.50;;;;;;;5.66;100.00;97884.52;110429;1241;59756;-71
2023/12/27 08:30:14;;;;;;;24.50;19.00;;;;;;;5.64;100.00;97882.88;110389;1241;59737;-70
2023/12/27 08:32:44;;;;;;;32.10;25.30;;;;;;;5.78;100.00;97886.22;110454;1242;71972;-70
2023/12/27 08:35:14;;;;;;;24.30;18.40;;;;;;;5.85;100.00;97890.04;110544;1242;69211;-70
2023/12/27 08:37:47;;;;;;;21.20;16.30;;;;;;;5.85;100.00;97891.98;110518;1240;69743;-70
2023/12/27 08:40:20;;;;;;;22.40;20.10;;;;;;;6.01;100.00;97896.42;110750;1241;59737;-71
2023/12/27 08:42:50;;;;;;;22.80;20.00;;;;;;;6.10;100.00;97900.14;110749;1240;59705;-70
2023/12/27 08:45:19;;;;;;;23.90;19.70;;;;;;;6.28;100.00;97905.55;110575;1242;72012;-70
2023/12/27 08:47:48;;;;;;;26.70;21.80;;;;;;;6.48;100.00;97913.61;110577;1241;68101;-72
2023/12/27 08:50:18;;;;;;;23.60;19.70;;;;;;;6.62;100.00;97911.84;110514;1241;69134;-72
2023/12/27 08:52:48;;;;;;;;;;;;;;;6.56;100.00;97912.70;110664;1241;59804;-72
2023/12/27 08:55:17;;;;;;;32.00;25.70;;;;;;;6.55;100.00;97912.73;110513;1241;59757;-71
2023/12/27 08:57:46;;;;;;;31.60;26.60;;;;;;;6.65;100.00;97912.24;110549;1240;71203;-71
2023/12/27 09:00:18;;;;;;;39.40;30.60;;;;;;;6.88;100.00;97911.80;110555;1241;69190;-71
2023/12/27 09:02:47;;;;;;;36.50;29.40;;;;;;;6.91;100.00;97912.70;110473;1241;69856;-71
2023/12/27 09:05:17;;;;;;;35.20;28.60;;;;;;;6.89;100.00;97911.39;110346;1242;59736;-71
2023/12/27 09:07:47;;;;;;;29.30;22.90;;;;;;;6.92;100.00;97912.13;110386;1241;59637;-71
2023/12/27 09:10:16;;;;;;;20.60;18.10;;;;;;;6.87;100.00;97913.58;110498;1242;71950;-71
2023/12/27 09:12:45;;;;;;;23.60;19.80;;;;;;;6.85;100.00;97913.67;110530;1241;69209;-71
2023/12/27 09:15:15;;;;;;;10.20;8.70;;;;;;;7.04;100.00;97913.40;110498;1242;69774;-72
2023/12/27 09:17:45;;;;;;;8.90;7.20;;;;;;;7.66;100.00;97903.23;110331;1241;59805;-73
2023/12/27 09:20:14;;;;;;;11.00;8.40;;;;;;;8.51;100.00;97904.52;110424;1242;59659;-69
2023/12/27 09:22:44;;;;;;;8.80;6.60;;;;;;;9.09;97.44;97907.77;110333;1240;70672;-68
2023/12/27 09:25:14;;;;;;;8.90;6.60;;;;;;;9.90;91.28;97902.66;110362;1241;69318;-69
2023/12/27 09:27:44;;;;;;;7.50;6.20;;;;;;;10.33;90.12;97896.51;110388;1239;69865;-69
2023/12/27 09:30:14;;;;;;;9.30;7.30;;;;;;;10.63;85.92;97903.30;110493;1241;60062;-69
2023/12/27 09:32:43;;;;;;;6.10;5.50;;;;;;;10.98;85.86;97903.26;110364;1242;59669;-68
2023/12/27 09:35:13;;;;;;;18.60;13.00;;;;;;;11.40;87.69;97902.19;110478;1241;71788;-69
2023/12/27 09:37:42;;;;;;;5.40;4.60;;;;;;;11.62;80.63;97898.20;110448;1242;69790;-69
2023/12/27 09:40:12;;;;;;;9.50;7.10;;;;;;;11.19;78.16;97902.70;110392;1241;69194;-70
2023/12/27 09:42:43;;;;;;;16.40;12.20;;;;;;;11.14;79.82;97913.55;110453;1242;59792;-70
2023/12/27 09:45:18;;;;;;;8.30;6.00;;;;;;;10.90;81.20;97918.10;110480;1242;59682;-68
2023/12/27 09:47:53;;;;;;;5.60;4.40;;;;;;;10.42;77.71;97921.92;110429;1242;72023;-69
2023/12/27 09:50:22;;;;;;;14.70;9.80;;;;;;;10.48;79.25;97923.59;110343;1240;68637;-71
2023/12/27 09:52:53;;;;;;;9.60;6.60;;;;;;;10.42;76.27;97925.20;110472;1242;69675;-70
2023/12/27 09:55:23;;;;;;;4.70;3.40;;;;;;;10.40;75.18;97931.61;110514;1248;59743;-68
2023/12/27 09:57:52;;;;;;;7.10;5.40;;;;;;;10.52;79.14;97933.67;110456;1241;59695;-69
2023/12/27 10:00:23;;;;;;;;;;;;;;;10.21;77.47;97933.67;110477;1242;71992;-68
2023/12/27 10:02:58;;;;;;;7.70;5.70;;;;;;;10.18;80.73;97932.63;110383;1241;69276;-68
2023/12/27 10:05:43;;;;;;;6.20;4.90;;;;;;;10.08;79.31;97933.28;110474;1241;69891;-70
2023/12/27 10:08:13;;;;;;;4.00;3.00;;;;;;;9.47;77.98;97932.98;110405;1242;60119;-69
2023/12/27 10:10:44;;;;;;;7.90;6.30;;;;;;;9.47;80.34;97932.83;110471;1242;59684;-69
2023/12/27 10:13:14;;;;;;;5.30;4.70;;;;;;;9.49;81.14;97931.83;110406;1242;71742;-68
2023/12/27 10:15:44;;;;;;;13.40;11.30;;;;;;;9.34;81.17;97938.85;110468;1242;69827;-72
2023/12/27 10:18:13;;;;;;;4.30;2.90;;;;;;;9.10;80.56;97940.91;110291;1241;70007;-77
2023/12/27 10:20:46;;;;;;;4.10;2.90;;;;;;;8.64;81.76;97944.63;110391;1242;59737;-71
2023/12/27 10:23:15;;;;;;;3.80;2.60;;;;;;;8.60;82.63;97942.77;110512;1241;59691;-69
2023/12/27 10:25:45;;;;;;;3.60;2.70;;;;;;;8.57;82.27;97941.34;110541;1241;71844;-70
2023/12/27 10:28:14;;;;;;;4.00;3.00;;;;;;;8.86;81.70;97942.50;110362;1240;69729;-70
2023/12/27 10:30:46;;;;;;;4.40;3.00;;;;;;;9.68;79.01;97944.05;110510;1242;69845;-71
2023/12/27 10:33:15;;;;;;;3.10;2.80;;;;;;;10.58;75.12;97943.20;110436;1242;59702;-70
2023/12/27 10:35:50;;;;;;;3.50;2.60;;;;;;;11.47;69.37;97940.27;110391;1243;59691;-70
2023/12/27 10:38:20;;;;;;;3.30;2.70;;;;;;;12.01;66.63;97940.05;110461;1241;70401;-70
2023/12/27 10:40:52;;;;;;;3.30;2.20;;;;;;;12.64;64.42;97942.36;110520;1241;69650;-70
2023/12/27 10:43:25;;;;;;;4.50;2.70;;;;;;;13.38;62.62;97940.20;110463;1242;69234;-70
2023/12/27 10:45:54;;;;;;;3.90;2.70;;;;;;;13.90;58.16;97933.58;110385;1242;59667;-69
2023/12/27 10:48:28;;;;;;;3.60;3.00;;;;;;;13.92;57.11;97928.17;110449;1243;59659;-71
2023/12/27 10:50:57;;;;;;;3.90;2.70;;;;;;;13.93;56.52;97928.43;110368;1240;71956;-77
2023/12/27 10:53:29;;;;;;;4.30;3.00;;;;;;;14.57;56.77;97919.84;110380;1241;69819;-76
2023/12/27 10:56:01;;;;;;;3.60;2.80;;;;;;;14.15;54.89;97928.10;110416;1241;69280;-70
2023/12/27 10:58:31;;;;;;;3.80;2.50;;;;;;;14.23;54.97;97931.84;110203;1242;59741;-72
2023/12/27 11:01:01;;;;;;;2.90;2.40;;;;;;;14.56;53.95;97931.56;110164;1241;59696;-71
2023/12/27 11:03:32;;;;;;;3.50;2.80;;;;;;;14.95;53.67;97936.77;109697;1242;621123;-77
2023/12/27 11:06:03;;;;;;;4.10;2.70;;;;;;;15.42;52.92;97939.67;110226;1241;68470;-70
2023/12/27 11:08:34;;;;;;;2.60;2.10;;;;;;;15.22;51.19;97951.59;110181;1242;69511;-69
2023/12/27 11:11:05;;;;;;;7.90;5.00;;;;;;;15.13;52.03;97952.87;110205;1245;59683;-70
2023/12/27 11:13:36;;;;;;;3.70;2.70;;;;;;;15.45;51.47;97944.52;110235;1241;59681;-78
2023/12/27 11:16:07;;;;;;;3.90;3.00;;;;;;;16.08;49.17;97943.20;110199;1242;71956;-76
2023/12/27 11:18:38;;;;;;;3.40;2.40;;;;;;;16.59;48.59;97943.85;110196;1242;69675;-77
2023/12/27 11:21:08;;;;;;;2.80;2.50;;;;;;;16.41;47.70;97943.47;110205;1242;69828;-72
2023/12/27 11:23:37;;;;;;;5.20;3.60;;;;;;;17.36;48.60;97940.98;110194;1242;60075;-80
2023/12/27 11:26:07;;;;;;;5.30;3.10;;;;;;;18.33;45.87;97931.79;110213;1242;59656;-81
2023/12/27 11:28:39;;;;;;;;;;;;;;;18.98;45.16;97931.48;110218;1242;71374;-74
2023/12/27 11:31:08;;;;;;;3.00;1.90;;;;;;;19.15;43.44;97931.58;110203;1241;69558;-77